createdAt,value
2022-12-09T00:01:41.403Z,101372.52
2022-12-09T00:03:55.234Z,101373.58
2022-12-09T00:06:13.224Z,101371.98
2022-12-09T00:08:26.680Z,101371.96
2022-12-09T00:10:40.218Z,101374.91
2022-12-09T00:12:57.132Z,101373.75
2022-12-09T00:15:11.134Z,101377.04
2022-12-09T00:17:24.606Z,101371.94
2022-12-09T00:19:38.658Z,101370.76
2022-12-09T00:21:51.887Z,101374.13
2022-12-09T00:24:07.014Z,101377.98
2022-12-09T00:26:21.739Z,101377.94
2022-12-09T00:28:35.148Z,101374.55
2022-12-09T00:30:48.593Z,101377.66
2022-12-09T00:33:01.929Z,101378.86
2022-12-09T00:35:15.579Z,101379.58
2022-12-09T00:37:28.789Z,101382.20
2022-12-09T00:39:45.386Z,101384.88
2022-12-09T00:41:59.002Z,101385.89
2022-12-09T00:44:14.422Z,101382.58
2022-12-09T00:46:28.454Z,101379.39
2022-12-09T00:48:42.599Z,101381.76
2022-12-09T00:50:57.127Z,101384.76
2022-12-09T00:53:10.364Z,101386.55
2022-12-09T00:55:24.108Z,101389.70
2022-12-09T00:57:37.471Z,101394.79
2022-12-09T00:59:50.808Z,101384.40
2022-12-09T01:02:04.439Z,101385.30
2022-12-09T01:04:18.783Z,101389.17
2022-12-09T01:06:32.775Z,101386.72
2022-12-09T01:08:46.430Z,101390.77
2022-12-09T01:11:00.298Z,101392.73
2022-12-09T01:13:14.929Z,101395.67
2022-12-09T01:15:28.866Z,101394.27
2022-12-09T01:17:42.929Z,101393.95
2022-12-09T01:19:56.148Z,101392.05
2022-12-09T01:22:09.505Z,101395.55
2022-12-09T01:24:22.769Z,101398.20
2022-12-09T01:26:36.308Z,101397.46
2022-12-09T01:28:53.679Z,101400.30
2022-12-09T01:31:15.773Z,101395.77
2022-12-09T01:33:29.420Z,101399.91
2022-12-09T01:35:46.094Z,101399.54
2022-12-09T01:37:59.464Z,101400.14
2022-12-09T01:40:18.426Z,101395.64
2022-12-09T01:42:32.539Z,101395.63
2022-12-09T01:44:58.351Z,101395.22
2022-12-09T01:47:27.350Z,101397.92
2022-12-09T01:49:47.703Z,101398.55
2022-12-09T01:52:11.599Z,101397.20
2022-12-09T01:54:25.776Z,101395.08
2022-12-09T01:56:41.059Z,101392.54
2022-12-09T01:58:58.051Z,101389.52
2022-12-09T02:01:12.080Z,101390.61
2022-12-09T02:03:25.995Z,101391.88
2022-12-09T02:05:40.173Z,101394.02
2022-12-09T02:07:54.268Z,101394.42
2022-12-09T02:10:20.015Z,101392.98
2022-12-09T02:12:53.035Z,101396.63
2022-12-09T02:15:11.817Z,101394.41
2022-12-09T02:17:36.172Z,101390.60
2022-12-09T02:20:03.235Z,101392.05
2022-12-09T02:22:21.229Z,101391.42
2022-12-09T02:24:43.624Z,101394.96
2022-12-09T02:26:59.318Z,101398.30
2022-12-09T02:29:44.622Z,101402.73
2022-12-09T02:32:17.362Z,101414.89
2022-12-09T02:34:35.696Z,101412.98
2022-12-09T02:36:57.894Z,101411.55
2022-12-09T02:39:14.006Z,101417.02
2022-12-09T02:41:31.185Z,101431.89
2022-12-09T02:43:50.351Z,101444.13
2022-12-09T02:46:10.545Z,101435.91
2022-12-09T02:48:29.088Z,101431.30
2022-12-09T02:50:45.242Z,101429.52
2022-12-09T02:53:03.874Z,101432.77
2022-12-09T02:55:21.046Z,101431.75
2022-12-09T02:57:37.800Z,101424.70
2022-12-09T02:59:51.278Z,101426.29
2022-12-09T03:02:18.531Z,101426.82
2022-12-09T03:04:34.315Z,101432.38
2022-12-09T03:06:51.631Z,101432.97
2022-12-09T03:09:11.401Z,101429.55
2022-12-09T03:11:27.900Z,101432.41
2022-12-09T03:13:57.813Z,101434.73
2022-12-09T03:16:22.636Z,101440.23
2022-12-09T03:18:39.091Z,101440.98
2022-12-09T03:20:54.251Z,101438.75
2022-12-09T03:23:11.417Z,101438.50
2022-12-09T03:25:30.609Z,101440.03
2022-12-09T03:27:51.025Z,101438.92
2022-12-09T03:30:09.227Z,101438.89
2022-12-09T03:32:28.235Z,101437.96
2022-12-09T03:34:46.032Z,101435.83
2022-12-09T03:37:01.414Z,101440.99
2022-12-09T03:39:18.036Z,101443.31
2022-12-09T03:41:36.184Z,101443.85
2022-12-09T03:43:56.129Z,101442.29
2022-12-09T03:46:09.597Z,101442.70
2022-12-09T03:48:23.388Z,101438.88
2022-12-09T03:50:44.416Z,101440.17
2022-12-09T03:53:02.212Z,101435.58
2022-12-09T03:55:25.203Z,101431.16
2022-12-09T03:57:40.781Z,101432.73
2022-12-09T03:59:59.465Z,101427.95
2022-12-09T04:02:13.426Z,101423.38
2022-12-09T04:04:27.061Z,101419.27
2022-12-09T04:06:41.121Z,101416.20
2022-12-09T04:08:58.113Z,101419.43
2022-12-09T04:11:15.269Z,101423.47
2022-12-09T04:13:28.766Z,101426.77
2022-12-09T04:15:42.365Z,101430.95
2022-12-09T04:17:55.707Z,101430.33
2022-12-09T04:20:10.076Z,101428.10
2022-12-09T04:22:24.106Z,101429.28
2022-12-09T04:24:39.192Z,101430.98
2022-12-09T04:26:52.694Z,101429.36
2022-12-09T04:29:06.373Z,101435.11
2022-12-09T04:31:21.628Z,101434.17
2022-12-09T04:33:36.375Z,101433.41
2022-12-09T04:35:49.791Z,101435.60
2022-12-09T04:38:03.324Z,101437.12
2022-12-09T04:40:23.820Z,101439.64
2022-12-09T04:42:38.462Z,101443.77
2022-12-09T04:44:51.976Z,101445.27
2022-12-09T04:47:05.912Z,101448.70
2022-12-09T04:49:19.841Z,101446.54
2022-12-09T04:51:39.024Z,101451.39
2022-12-09T04:53:55.903Z,101448.17
2022-12-09T04:56:11.086Z,101448.42
2022-12-09T04:58:24.746Z,101447.13
2022-12-09T05:00:38.275Z,101448.65
2022-12-09T05:02:51.606Z,101448.06
2022-12-09T05:05:05.024Z,101444.80
2022-12-09T05:07:19.537Z,101441.85
2022-12-09T05:09:33.027Z,101441.38
2022-12-09T05:11:46.419Z,101445.70
2022-12-09T05:14:00.490Z,101445.81
2022-12-09T05:16:16.886Z,101446.44
2022-12-09T05:18:30.861Z,101443.30
2022-12-09T05:20:46.653Z,101454.78
2022-12-09T05:23:04.299Z,101455.38
2022-12-09T05:25:21.070Z,101456.84
2022-12-09T05:27:34.957Z,101456.37
2022-12-09T05:29:48.221Z,101455.70
2022-12-09T05:32:01.685Z,101458.92
2022-12-09T05:34:15.149Z,101462.34
2022-12-09T05:36:30.613Z,101463.98
2022-12-09T05:38:45.154Z,101466.83
2022-12-09T05:40:59.037Z,101466.88
2022-12-09T05:43:12.188Z,101464.30
2022-12-09T05:45:25.850Z,101463.12
2022-12-09T05:47:39.575Z,101457.52
2022-12-09T05:49:53.283Z,101457.55
2022-12-09T05:52:07.368Z,101459.84
2022-12-09T05:54:22.356Z,101463.89
2022-12-09T05:56:38.065Z,101466.19
2022-12-09T05:58:55.531Z,101467.16
2022-12-09T06:01:13.113Z,101479.55
2022-12-09T06:03:28.139Z,101486.14
2022-12-09T06:05:43.370Z,101473.20
2022-12-09T06:08:02.361Z,101466.85
2022-12-09T06:10:19.796Z,101467.02
2022-12-09T06:12:34.524Z,101468.29
2022-12-09T06:14:48.801Z,101463.29
2022-12-09T06:17:03.112Z,101459.41
2022-12-09T06:19:20.315Z,101459.79
2022-12-09T06:21:34.742Z,101462.73
2022-12-09T06:23:49.639Z,101461.02
2022-12-09T06:26:03.552Z,101463.23
2022-12-09T06:28:17.389Z,101459.45
2022-12-09T06:30:30.778Z,101457.94
2022-12-09T06:32:44.483Z,101456.95
2022-12-09T06:34:58.165Z,101457.52
2022-12-09T06:37:11.524Z,101452.98
2022-12-09T06:39:24.706Z,101451.46
2022-12-09T06:41:38.617Z,101447.17
2022-12-09T06:43:52.060Z,101445.84
2022-12-09T06:46:05.509Z,101447.72
2022-12-09T06:48:18.965Z,101444.30
2022-12-09T06:50:33.481Z,101441.77
2022-12-09T06:52:47.222Z,101440.45
2022-12-09T06:55:00.631Z,101441.42
2022-12-09T06:57:14.407Z,101439.56
2022-12-09T06:59:28.147Z,101436.95
2022-12-09T07:01:42.871Z,101440.65
2022-12-09T07:03:58.429Z,101441.06
2022-12-09T07:06:20.395Z,101440.57
2022-12-09T07:08:34.260Z,101442.66
2022-12-09T07:10:53.060Z,101440.76
2022-12-09T07:13:09.738Z,101444.95
2022-12-09T07:15:23.576Z,101445.96
2022-12-09T07:17:37.020Z,101446.98
2022-12-09T07:19:51.262Z,101447.64
2022-12-09T07:22:05.003Z,101446.89
2022-12-09T07:24:19.572Z,101443.66
2022-12-09T07:26:33.916Z,101443.96
2022-12-09T07:28:49.427Z,101444.83
2022-12-09T07:31:03.065Z,101444.43
2022-12-09T07:33:16.657Z,101446.30
2022-12-09T07:35:30.133Z,101449.91
2022-12-09T07:37:43.977Z,101453.04
2022-12-09T07:39:57.268Z,101452.45
2022-12-09T07:42:11.322Z,101450.84
2022-12-09T07:44:31.881Z,101444.16
2022-12-09T07:46:46.250Z,101443.96
2022-12-09T07:49:00.506Z,101443.77
2022-12-09T07:51:14.607Z,101443.19
2022-12-09T07:53:28.391Z,101442.27
2022-12-09T07:55:42.095Z,101442.56
2022-12-09T07:57:56.449Z,101441.29
2022-12-09T08:00:12.334Z,101468.64
2022-12-09T08:02:25.842Z,101489.59
2022-12-09T08:04:40.673Z,101497.91
2022-12-09T08:06:54.260Z,101496.88
2022-12-09T08:09:09.682Z,101501.59
2022-12-09T08:11:25.396Z,101497.23
2022-12-09T08:13:39.782Z,101483.20
2022-12-09T08:15:53.588Z,101475.04
2022-12-09T08:18:07.760Z,101467.58
2022-12-09T08:20:27.378Z,101467.84
2022-12-09T08:22:42.647Z,101461.63
2022-12-09T08:24:56.489Z,101465.23
2022-12-09T08:27:10.460Z,101464.13
2022-12-09T08:29:23.985Z,101462.85
2022-12-09T08:31:41.550Z,101459.81
2022-12-09T08:33:56.638Z,101457.31
2022-12-09T08:36:13.056Z,101455.99
2022-12-09T08:38:26.342Z,101453.15
2022-12-09T08:40:40.150Z,101448.70
2022-12-09T08:42:53.654Z,101447.07
2022-12-09T08:45:07.291Z,101447.92
2022-12-09T08:47:21.332Z,101444.02
2022-12-09T08:49:34.832Z,101435.04
2022-12-09T08:51:48.409Z,101431.33
2022-12-09T08:54:02.414Z,101422.52
2022-12-09T08:56:20.255Z,101415.33
2022-12-09T08:58:34.165Z,101415.84
2022-12-09T09:00:47.557Z,101417.07
2022-12-09T09:03:01.179Z,101415.99
2022-12-09T09:05:15.636Z,101414.71
2022-12-09T09:07:29.403Z,101414.29
2022-12-09T09:09:43.839Z,101414.02
2022-12-09T09:11:57.292Z,101411.89
2022-12-09T09:14:12.724Z,101414.60
2022-12-09T09:16:27.615Z,101411.19
2022-12-09T09:18:41.960Z,101405.69
2022-12-09T09:20:58.854Z,101406.34
2022-12-09T09:23:12.548Z,101398.55
2022-12-09T09:25:26.166Z,101401.30
2022-12-09T09:27:40.894Z,101402.62
2022-12-09T09:29:54.390Z,101401.52
2022-12-09T09:32:08.081Z,101398.81
2022-12-09T09:34:21.705Z,101397.52
2022-12-09T09:36:35.509Z,101392.50
2022-12-09T09:38:49.124Z,101391.42
2022-12-09T09:41:03.684Z,101387.69
2022-12-09T09:43:23.052Z,101386.55
2022-12-09T09:45:36.701Z,101382.05
2022-12-09T09:47:55.210Z,101376.73
2022-12-09T09:50:13.210Z,101371.73
2022-12-09T09:52:29.629Z,101371.17
2022-12-09T09:54:43.653Z,101373.98
2022-12-09T09:57:03.638Z,101380.63
2022-12-09T09:59:29.759Z,101392.14
2022-12-09T10:01:44.825Z,101390.33
2022-12-09T10:04:04.379Z,101386.70
2022-12-09T10:06:33.191Z,101391.23
2022-12-09T10:09:00.520Z,101386.02
2022-12-09T10:11:22.124Z,101378.38
2022-12-09T10:13:47.783Z,101380.94
2022-12-09T10:16:11.374Z,101386.72
2022-12-09T10:18:29.722Z,101386.67
2022-12-09T10:20:44.240Z,101384.78
2022-12-09T10:23:03.064Z,101382.70
2022-12-09T10:25:24.829Z,101383.46
2022-12-09T10:27:44.650Z,101384.98
2022-12-09T10:30:02.621Z,101384.70
2022-12-09T10:32:22.389Z,101388.09
2022-12-09T10:34:36.411Z,101389.71
2022-12-09T10:36:51.379Z,101386.34
2022-12-09T10:39:06.198Z,101384.23
2022-12-09T10:41:43.506Z,101386.55
2022-12-09T10:43:59.241Z,101386.88
2022-12-09T10:46:18.538Z,101385.90
2022-12-09T10:48:38.792Z,101383.30
2022-12-09T10:50:59.202Z,101376.59
2022-12-09T10:53:18.024Z,101369.70
2022-12-09T10:55:38.870Z,101365.33
2022-12-09T10:57:52.072Z,101361.87
2022-12-09T11:00:09.613Z,101362.55
2022-12-09T11:02:27.809Z,101358.38
2022-12-09T11:04:43.291Z,101351.35
2022-12-09T11:07:01.441Z,101347.33
2022-12-09T11:09:28.788Z,101343.55
2022-12-09T11:11:50.463Z,101343.71
2022-12-09T11:14:04.258Z,101335.33
2022-12-09T11:16:18.102Z,101335.89
2022-12-09T11:18:35.631Z,101337.23
2022-12-09T11:20:58.062Z,101334.73
2022-12-09T11:23:18.869Z,101336.35
2022-12-09T11:25:34.530Z,101331.05
2022-12-09T11:27:53.103Z,101323.22
2022-12-09T11:30:20.328Z,101320.39
2022-12-09T11:32:34.715Z,101317.34
2022-12-09T11:34:52.155Z,101310.64
2022-12-09T11:37:05.975Z,101310.34
2022-12-09T11:39:31.002Z,101308.14
2022-12-09T11:42:06.240Z,101313.27
2022-12-09T11:44:29.879Z,101302.81
2022-12-09T11:46:43.763Z,101305.48
2022-12-09T11:49:01.438Z,101298.43
2022-12-09T11:51:26.982Z,101295.13
2022-12-09T11:53:44.372Z,101291.65
2022-12-09T11:56:01.815Z,101293.48
2022-12-09T11:58:19.608Z,101292.34
2022-12-09T12:00:37.245Z,101297.58
2022-12-09T12:02:55.550Z,101293.89
2022-12-09T12:05:21.886Z,101290.20
2022-12-09T12:07:42.048Z,101292.60
2022-12-09T12:10:00.088Z,101289.26
2022-12-09T12:12:23.642Z,101286.77
2022-12-09T12:14:39.351Z,101284.70
2022-12-09T12:16:59.611Z,101284.55
2022-12-09T12:19:23.069Z,101285.38
2022-12-09T12:21:58.932Z,101277.27
2022-12-09T12:24:39.305Z,101278.63
2022-12-09T12:27:03.525Z,101274.58
2022-12-09T12:29:30.326Z,101273.56
2022-12-09T12:32:08.244Z,101267.92
2022-12-09T12:34:34.325Z,101269.47
2022-12-09T12:37:00.312Z,101268.20
2022-12-09T12:39:25.817Z,101276.04
2022-12-09T12:41:45.704Z,101275.84
2022-12-09T12:44:29.884Z,101272.98
2022-12-09T12:46:57.795Z,101271.73
2022-12-09T12:49:29.112Z,101264.20
2022-12-09T12:51:54.563Z,101261.08
2022-12-09T12:54:18.891Z,101257.59
2022-12-09T12:56:41.904Z,101254.27
2022-12-09T12:59:06.283Z,101247.77
2022-12-09T13:01:26.633Z,101243.23
2022-12-09T13:03:50.289Z,101243.67
2022-12-09T13:06:04.961Z,101245.92
2022-12-09T13:08:31.273Z,101247.92
2022-12-09T13:10:48.063Z,101247.27
2022-12-09T13:13:05.026Z,101262.84
2022-12-09T13:15:23.161Z,101277.23
2022-12-09T13:17:36.587Z,101276.23
2022-12-09T13:19:54.730Z,101276.21
2022-12-09T13:22:09.499Z,101272.89
2022-12-09T13:24:29.952Z,101265.85
2022-12-09T13:26:54.232Z,101265.33
2022-12-09T13:29:17.663Z,101253.42
2022-12-09T13:31:35.277Z,101241.68
2022-12-09T13:33:57.638Z,101239.45
2022-12-09T13:36:18.782Z,101237.02
2022-12-09T13:38:37.636Z,101239.95
2022-12-09T13:40:50.860Z,101241.66
2022-12-09T13:43:13.777Z,101240.70
2022-12-09T13:45:33.847Z,101244.48
2022-12-09T13:47:47.360Z,101237.50
2022-12-09T13:50:05.999Z,101236.67
2022-12-09T13:52:51.226Z,101232.33
2022-12-09T13:55:04.723Z,101236.59
2022-12-09T13:57:27.879Z,101232.77
2022-12-09T13:59:47.105Z,101231.92
2022-12-09T14:02:04.814Z,101228.06
2022-12-09T14:04:24.410Z,101218.23
2022-12-09T14:06:42.755Z,101219.29
2022-12-09T14:08:58.910Z,101215.43
2022-12-09T14:11:40.669Z,101215.95
2022-12-09T14:13:54.240Z,101213.00
2022-12-09T14:16:38.473Z,101208.29
2022-12-09T14:18:52.784Z,101206.16
2022-12-09T14:21:29.685Z,101205.42
2022-12-09T14:23:43.000Z,101199.39
2022-12-09T14:26:11.684Z,101199.80
2022-12-09T14:28:54.084Z,101191.98
2022-12-09T14:31:09.216Z,101191.42
2022-12-09T14:33:35.592Z,101181.38
2022-12-09T14:35:52.695Z,101174.32
2022-12-09T14:38:20.988Z,101169.37
2022-12-09T14:40:58.520Z,101164.23
2022-12-09T14:43:36.673Z,101162.29
2022-12-09T14:45:58.048Z,101155.07
2022-12-09T14:48:16.019Z,101153.11
2022-12-09T14:50:31.126Z,101151.13
2022-12-09T14:52:56.366Z,101146.31
2022-12-09T14:55:17.808Z,101142.18
2022-12-09T14:57:33.843Z,101134.90
2022-12-09T14:59:53.718Z,101139.21
2022-12-09T15:02:20.563Z,101135.52
2022-12-09T15:04:37.498Z,101130.91
2022-12-09T15:06:50.767Z,101127.18
2022-12-09T15:09:04.993Z,101128.04
2022-12-09T15:11:20.113Z,101130.10
2022-12-09T15:13:35.712Z,101130.42
2022-12-09T15:15:49.469Z,101127.09
2022-12-09T15:18:05.309Z,101122.15
2022-12-09T15:20:30.981Z,101115.77
2022-12-09T15:22:48.217Z,101118.77
2022-12-09T15:25:05.671Z,101113.17
2022-12-09T15:27:27.003Z,101105.09
2022-12-09T15:29:40.574Z,101105.75
2022-12-09T15:31:55.927Z,101104.27
2022-12-09T15:34:15.307Z,101100.83
2022-12-09T15:36:32.363Z,101094.39
2022-12-09T15:38:48.985Z,101086.55
2022-12-09T15:41:20.821Z,101078.52
2022-12-09T15:43:35.210Z,101077.45
2022-12-09T15:45:49.297Z,101071.23
2022-12-09T15:48:06.804Z,101066.39
2022-12-09T15:50:26.542Z,101065.11
2022-12-09T15:52:45.021Z,101064.17
2022-12-09T15:54:59.779Z,101073.13
2022-12-09T15:57:16.176Z,101059.66
2022-12-09T15:59:32.818Z,101052.09
2022-12-09T16:01:50.839Z,101042.63
2022-12-09T16:04:06.730Z,101041.23
2022-12-09T16:06:20.008Z,101036.63
2022-12-09T16:08:41.198Z,101037.95
2022-12-09T16:10:55.658Z,101039.45
2022-12-09T16:13:14.356Z,101037.83
2022-12-09T16:15:50.554Z,101026.02
2022-12-09T16:18:05.945Z,101016.30
2022-12-09T16:20:34.440Z,101009.08
2022-12-09T16:22:47.827Z,101005.86
2022-12-09T16:25:14.658Z,101000.17
2022-12-09T16:27:29.996Z,100993.94
2022-12-09T16:29:43.690Z,100992.11
2022-12-09T16:32:27.887Z,100994.67
2022-12-09T16:34:41.447Z,100996.58
2022-12-09T16:37:04.097Z,100994.75
2022-12-09T16:39:40.411Z,100994.31
2022-12-09T16:42:05.888Z,100990.02
2022-12-09T16:44:30.631Z,100983.09
2022-12-09T16:46:45.719Z,100984.27
2022-12-09T16:49:04.713Z,100982.65
2022-12-09T16:51:20.826Z,100975.67
2022-12-09T16:53:37.971Z,100974.67
2022-12-09T16:55:57.641Z,100973.33
2022-12-09T16:58:13.010Z,100976.44
2022-12-09T17:00:28.119Z,100973.91
2022-12-09T17:02:45.228Z,100972.73
2022-12-09T17:04:59.164Z,100969.15
2022-12-09T17:07:12.616Z,100962.29
2022-12-09T17:09:25.961Z,100960.54
2022-12-09T17:11:42.867Z,100957.83
2022-12-09T17:14:00.321Z,100955.19
2022-12-09T17:16:15.305Z,100955.40
2022-12-09T17:18:28.616Z,100949.42
2022-12-09T17:20:41.994Z,100948.59
2022-12-09T17:22:55.213Z,100951.80
2022-12-09T17:25:09.039Z,100939.56
2022-12-09T17:27:22.648Z,100930.05
2022-12-09T17:29:35.885Z,100928.06
2022-12-09T17:31:50.991Z,100914.80
2022-12-09T17:34:04.612Z,100908.95
2022-12-09T17:36:19.020Z,100905.88
2022-12-09T17:38:33.599Z,100907.56
2022-12-09T17:40:46.948Z,100905.15
2022-12-09T17:43:00.151Z,100893.20
2022-12-09T17:45:14.443Z,100887.28
2022-12-09T17:47:28.293Z,100881.84
2022-12-09T17:49:41.795Z,100868.77
2022-12-09T17:51:55.061Z,100859.14
2022-12-09T17:54:08.638Z,100859.11
2022-12-09T17:56:24.430Z,100856.86
2022-12-09T17:58:37.799Z,100851.13
2022-12-09T18:00:51.110Z,100848.88
2022-12-09T18:03:04.656Z,100840.42
2022-12-09T18:05:18.352Z,100835.30
2022-12-09T18:07:31.608Z,100837.57
2022-12-09T18:09:46.610Z,100838.94
2022-12-09T18:12:03.644Z,100835.35
2022-12-09T18:14:17.117Z,100834.84
2022-12-09T18:16:30.528Z,100836.31
2022-12-09T18:18:44.621Z,100843.73
2022-12-09T18:21:02.557Z,100837.86
2022-12-09T18:23:16.109Z,100832.71
2022-12-09T18:25:29.803Z,100825.91
2022-12-09T18:27:43.059Z,100818.33
2022-12-09T18:29:56.188Z,100810.14
2022-12-09T18:32:09.824Z,100802.77
2022-12-09T18:34:23.126Z,100796.04
2022-12-09T18:36:36.398Z,100794.09
2022-12-09T18:38:50.065Z,100792.31
2022-12-09T18:41:06.502Z,100783.52
2022-12-09T18:43:20.847Z,100771.91
2022-12-09T18:45:34.163Z,100762.09
2022-12-09T18:47:49.524Z,100761.23
2022-12-09T18:50:02.768Z,100758.19
2022-12-09T18:52:16.572Z,100752.67
2022-12-09T18:54:33.622Z,100747.71
2022-12-09T18:56:46.801Z,100740.05
2022-12-09T18:59:08.932Z,100729.91
2022-12-09T19:01:25.288Z,100729.92
2022-12-09T19:03:38.514Z,100707.55
2022-12-09T19:05:52.112Z,100704.78
2022-12-09T19:08:05.705Z,100704.05
2022-12-09T19:10:21.904Z,100688.71
2022-12-09T19:12:56.336Z,100685.43
2022-12-09T19:15:09.202Z,100681.73
2022-12-09T19:17:22.932Z,100668.67
2022-12-09T19:19:36.468Z,100662.55
2022-12-09T19:21:51.452Z,100664.46
2022-12-09T19:24:05.554Z,100658.42
2022-12-09T19:26:20.542Z,100655.22
2022-12-09T19:28:34.109Z,100642.28
2022-12-09T19:30:50.005Z,100627.91
2022-12-09T19:33:03.489Z,100624.66
2022-12-09T19:35:16.967Z,100615.85
2022-12-09T19:37:30.341Z,100606.09
2022-12-09T19:39:48.173Z,100602.52
2022-12-09T19:42:02.792Z,100591.36
2022-12-09T19:44:37.455Z,100580.20
2022-12-09T19:46:52.060Z,100576.46
2022-12-09T19:49:05.814Z,100565.35
2022-12-09T19:51:20.860Z,100560.66
2022-12-09T19:53:34.129Z,100543.69
2022-12-09T19:55:48.170Z,100536.86
2022-12-09T19:58:01.529Z,100535.16
2022-12-09T20:00:19.480Z,100522.30
2022-12-09T20:02:34.265Z,100517.62
2022-12-09T20:04:49.652Z,100498.75
2022-12-09T20:07:07.680Z,100500.46
2022-12-09T20:09:25.718Z,100470.17
2022-12-09T20:11:40.072Z,100463.69
2022-12-09T20:13:53.445Z,100451.02
2022-12-09T20:16:14.115Z,100444.52
2022-12-09T20:18:27.284Z,100444.58
2022-12-09T20:20:47.187Z,100436.25
2022-12-09T20:23:02.037Z,100438.65
2022-12-09T20:25:15.987Z,100426.04
2022-12-09T20:27:29.359Z,100427.48
2022-12-09T20:29:42.786Z,100415.84
2022-12-09T20:31:56.461Z,100404.08
2022-12-09T20:34:12.591Z,100403.67
2022-12-09T20:36:27.784Z,100393.64
2022-12-09T20:38:41.993Z,100386.24
2022-12-09T20:40:55.261Z,100363.59
2022-12-09T20:43:08.801Z,100366.99
2022-12-09T20:45:22.498Z,100351.48
2022-12-09T20:47:36.148Z,100354.83
2022-12-09T20:49:49.660Z,100334.04
2022-12-09T20:52:02.783Z,100338.06
2022-12-09T20:54:17.099Z,100315.13
2022-12-09T20:56:33.211Z,100308.63
2022-12-09T20:58:48.559Z,100306.26
2022-12-09T21:01:07.535Z,100296.27
2022-12-09T21:03:21.882Z,100290.47
2022-12-09T21:05:35.211Z,100282.95
2022-12-09T21:07:48.426Z,100271.86
2022-12-09T21:10:01.742Z,100270.31
2022-12-09T21:12:15.307Z,100246.16
2022-12-09T21:14:32.849Z,100239.92
2022-12-09T21:16:51.437Z,100234.15
2022-12-09T21:19:07.190Z,100234.44
2022-12-09T21:21:21.454Z,100221.21
2022-12-09T21:23:34.967Z,100201.16
2022-12-09T21:25:48.521Z,100191.12
2022-12-09T21:28:02.140Z,100195.33
2022-12-09T21:30:17.663Z,100176.42
2022-12-09T21:32:32.305Z,100157.27
2022-12-09T21:34:45.783Z,100148.59
2022-12-09T21:36:58.957Z,100134.69
2022-12-09T21:39:14.871Z,100136.97
2022-12-09T21:41:30.401Z,100113.98
2022-12-09T21:43:43.949Z,100117.50
2022-12-09T21:45:57.568Z,100112.27
2022-12-09T21:48:11.201Z,100098.67
2022-12-09T21:50:24.868Z,100096.17
2022-12-09T21:52:38.187Z,100088.52
2022-12-09T21:54:55.460Z,100067.34
2022-12-09T21:57:10.502Z,100056.09
2022-12-09T21:59:24.386Z,100040.63
2022-12-09T22:01:39.200Z,100041.29
2022-12-09T22:03:53.423Z,100016.64
2022-12-09T22:06:07.702Z,100022.41
2022-12-09T22:08:21.108Z,100007.79
2022-12-09T22:10:34.485Z,100004.84
2022-12-09T22:13:07.649Z,100006.50
2022-12-09T22:15:21.321Z,99990.80
2022-12-09T22:17:35.340Z,99974.05
2022-12-09T22:20:00.515Z,99961.69
2022-12-09T22:22:22.535Z,99975.48
2022-12-09T22:24:35.638Z,99956.98
2022-12-09T22:26:49.336Z,99959.19
2022-12-09T22:29:05.844Z,99956.37
2022-12-09T22:31:21.703Z,99942.55
2022-12-09T22:33:36.222Z,99941.80
2022-12-09T22:35:49.534Z,99939.59
2022-12-09T22:38:08.356Z,99937.80
2022-12-09T22:40:25.360Z,99928.00
2022-12-09T22:42:37.740Z,99918.90
2022-12-09T22:44:50.880Z,99931.79
2022-12-09T22:47:04.149Z,99907.02
2022-12-09T22:49:18.890Z,99888.58
2022-12-09T22:51:35.004Z,99895.90
2022-12-09T22:53:51.802Z,99880.86
2022-12-09T22:56:05.130Z,99861.95
2022-12-09T22:58:19.280Z,99874.30
2022-12-09T23:00:32.812Z,99844.48
2022-12-09T23:02:46.112Z,99849.02
2022-12-09T23:04:59.345Z,99837.54
2022-12-09T23:07:12.876Z,99835.58
2022-12-09T23:09:28.451Z,99820.17
2022-12-09T23:11:42.260Z,99810.63
2022-12-09T23:13:55.641Z,99822.58
2022-12-09T23:16:10.274Z,99802.48
2022-12-09T23:18:24.191Z,99788.96
2022-12-09T23:20:38.346Z,99787.97
2022-12-09T23:22:51.732Z,99793.35
2022-12-09T23:25:05.143Z,99781.39
2022-12-09T23:27:18.809Z,99787.29
2022-12-09T23:29:32.258Z,99779.90
2022-12-09T23:31:46.395Z,99769.89
2022-12-09T23:34:00.574Z,99759.94
2022-12-09T23:36:17.969Z,99766.43
2022-12-09T23:38:31.338Z,99754.30
2022-12-09T23:40:52.864Z,99750.09
2022-12-09T23:43:06.591Z,99731.54
2022-12-09T23:45:20.375Z,99734.48
2022-12-09T23:47:33.607Z,99726.98
2022-12-09T23:49:47.289Z,99718.23
2022-12-09T23:52:00.666Z,99706.27
2022-12-09T23:54:15.578Z,99705.95
2022-12-09T23:56:30.854Z,99695.25
2022-12-09T23:58:44.421Z,99683.98
